Time;durP1;ratioP1;P1;durP2;ratioP2;P2;SDS_P1;SDS_P2;PMS_P1;PMS_P2;Temp;Humidity;BMP_temperature;BMP_pressure;BME280_temperature;BME280_humidity;BME280_pressure;Samples;Min_cycle;Max_cycle;Signal;HPM_P1;HPM_P2
2022/12/24 00:00:23;;;;;;;;;9.00;4.00;;;;;13.08;73.84;100863.34;5111686;27;45638;-67
2022/12/24 00:02:49;;;;;;;;;5.00;3.33;;;;;13.04;73.80;100855.47;5112439;27;45597;-68
2022/12/24 00:05:15;;;;;;;;;2.67;2.67;;;;;13.08;74.20;100868.59;5115491;27;46558;-65
2022/12/24 00:07:41;;;;;;;;;9.00;4.00;;;;;13.13;74.43;100877.34;5112613;27;45365;-67
2022/12/24 00:10:08;;;;;;;;;8.33;5.00;;;;;13.13;73.68;100863.31;5113110;27;45629;-66
2022/12/24 00:12:35;;;;;;;;;6.00;4.00;;;;;13.14;73.69;100871.22;5118495;27;45497;-69
2022/12/24 00:15:03;;;;;;;;;12.67;4.00;;;;;13.09;73.83;100865.06;5123474;27;45981;-69
2022/12/24 00:17:29;;;;;;;;;7.33;4.33;;;;;12.96;73.65;100852.91;5112231;27;45434;-66
2022/12/24 00:19:54;;;;;;;;;8.00;3.67;;;;;13.03;73.86;100859.88;5111491;27;45445;-66
2022/12/24 00:22:20;;;;;;;;;8.33;4.00;;;;;13.09;73.58;100864.22;5113723;27;45639;-65
2022/12/24 00:24:45;;;;;;;;;4.00;3.00;;;;;13.03;74.00;100853.75;5110068;27;45854;-64
2022/12/24 00:27:11;;;;;;;;;8.00;3.33;;;;;13.06;73.91;100867.72;5114058;27;46009;-66
2022/12/24 00:29:36;;;;;;;;;6.33;4.00;;;;;13.06;73.68;100853.72;5112156;27;45608;-67
2022/12/24 00:32:06;;;;;;;;;3.67;3.00;;;;;13.05;73.25;100857.22;5106610;27;45432;-67
2022/12/24 00:34:32;;;;;;;;;8.67;5.00;;;;;13.10;73.65;100864.22;5109493;27;46354;-67
2022/12/24 00:36:58;;;;;;;;;5.33;3.67;;;;;13.05;73.22;100860.75;5094720;27;45619;-68
2022/12/24 00:39:24;;;;;;;;;7.00;2.67;;;;;13.02;73.27;100859.88;5101063;27;45441;-67
2022/12/24 00:41:49;;;;;;;;;7.33;4.00;;;;;13.00;73.52;100867.75;5105883;27;45338;-68
2022/12/24 00:44:15;;;;;;;;;5.33;3.67;;;;;13.01;73.82;100887.06;5111150;27;47936;-66
2022/12/24 00:46:41;;;;;;;;;8.33;4.00;;;;;12.99;74.11;100888.81;5112525;27;45510;-71
2022/12/24 00:49:09;;;;;;;;;3.33;3.00;;;;;12.97;74.02;100894.06;5115564;27;45455;-69
2022/12/24 00:51:36;;;;;;;;;5.33;3.00;;;;;12.99;74.01;100892.31;5116266;27;46084;-69
2022/12/24 00:54:02;;;;;;;;;6.00;4.33;;;;;12.99;74.20;100901.97;5113541;27;46243;-68
2022/12/24 00:56:28;;;;;;;;;7.33;3.00;;;;;12.94;73.97;100881.81;5127985;27;45409;-69
2022/12/24 00:58:55;;;;;;;;;4.00;1.00;;;;;13.00;74.02;100890.56;5103983;27;45975;-69
2022/12/24 01:01:21;;;;;;;;;8.67;4.00;;;;;12.97;74.22;100901.97;5112746;27;45453;-71
2022/12/24 01:03:47;;;;;;;;;4.33;3.33;;;;;12.85;74.34;100913.41;5128392;27;47305;-69
2022/12/24 01:06:15;;;;;;;;;6.67;4.00;;;;;12.94;74.34;100923.03;5109068;27;45938;-69
2022/12/24 01:08:41;;;;;;;;;3.00;3.00;;;;;12.90;73.95;100906.38;5110756;27;45796;-68
2022/12/24 01:11:09;;;;;;;;;5.67;3.67;;;;;12.84;74.48;100906.41;5112090;27;45451;-67
2022/12/24 01:13:35;;;;;;;;;8.67;3.33;;;;;12.91;73.65;100917.78;5111411;27;46412;-68
2022/12/24 01:16:01;;;;;;;;;8.33;2.00;;;;;12.92;74.13;100904.63;5113924;27;46160;-68
2022/12/24 01:18:26;;;;;;;;;4.00;4.00;;;;;12.86;74.46;100894.16;5113721;27;45581;-67
2022/12/24 01:21:01;;;;;;;;;4.33;3.00;;;;;12.86;75.06;100886.25;5116386;27;45633;-67
2022/12/24 01:23:28;;;;;;;;;6.00;3.00;;;;;12.96;74.73;100902.00;5111124;27;45538;-69
2022/12/24 01:25:54;;;;;;;;;6.00;4.00;;;;;12.90;74.02;100871.34;5111201;27;45760;-67
2022/12/24 01:28:20;;;;;;;;;4.00;2.00;;;;;12.97;74.44;100883.56;5116011;27;45510;-69
2022/12/24 01:30:47;;;;;;;;;7.67;3.33;;;;;12.92;74.74;100911.63;5112277;27;45483;-68
2022/12/24 01:33:13;;;;;;;;;6.33;5.00;;;;;12.83;74.48;100893.28;5098609;27;46351;-67
2022/12/24 01:35:40;;;;;;;;;5.33;3.33;;;;;12.84;74.35;100911.69;5097700;27;45749;-67
2022/12/24 01:38:06;;;;;;;;;5.33;4.33;;;;;12.85;74.79;100915.19;5111594;27;45503;-68
2022/12/24 01:43:23;;;;;;;;;11.67;4.33;;;;;12.86;74.51;100909.91;5117576;27;45598;-67
2022/12/24 01:45:52;;;;;;;;;14.67;5.00;;;;;12.88;74.81;100915.16;5111930;27;46761;-68
2022/12/24 01:48:33;;;;;;;;;10.33;4.00;;;;;12.89;74.89;100919.53;5108054;27;45475;-67
2022/12/24 01:51:07;;;;;;;;;11.33;6.33;;;;;12.73;74.94;100906.44;5106554;27;45499;-67
2022/12/24 01:53:36;;;;;;;;;8.00;5.00;;;;;12.85;74.96;100925.69;5097761;27;45531;-68
2022/12/24 01:56:04;;;;;;;;;7.33;4.33;;;;;12.68;75.06;100904.72;5106008;27;45528;-67
2022/12/24 01:58:31;;;;;;;;;10.67;4.33;;;;;12.84;75.23;100929.22;5117386;27;45546;-68
2022/12/24 02:00:57;;;;;;;;;8.67;4.33;;;;;12.77;74.53;100932.75;5119144;27;45512;-66
2022/12/24 02:03:23;;;;;;;;;6.33;4.67;;;;;12.60;74.72;100904.78;5106583;27;45588;-67
2022/12/24 02:05:52;;;;;;;;;9.00;3.67;;;;;12.74;75.26;100923.09;5106818;27;45216;-67
2022/12/24 02:08:18;;;;;;;;;7.67;3.00;;;;;12.75;75.05;100934.50;5121543;27;45443;-67
2022/12/24 02:10:48;;;;;;;;;7.33;5.00;;;;;12.59;75.01;100928.41;5119351;27;45351;-68
2022/12/24 02:13:17;;;;;;;;;5.33;3.67;;;;;12.78;75.43;100966.03;5111573;27;45835;-68
2022/12/24 02:16:04;;;;;;;;;4.67;4.00;;;;;12.79;75.84;100949.34;5108369;27;45499;-67
2022/12/24 02:19:04;;;;;;;;;7.67;4.00;;;;;12.78;75.69;100945.00;5117044;27;45764;-67
2022/12/24 02:21:56;;;;;;;;;9.33;4.33;;;;;12.75;75.22;100942.38;5130436;27;45594;-67
2022/12/24 02:24:48;;;;;;;;;10.33;4.00;;;;;12.70;75.91;100945.91;5115970;27;48101;-67
2022/12/24 02:27:38;;;;;;;;;2.67;2.67;;;;;12.55;75.22;100924.03;5118973;27;45462;-67
2022/12/24 02:30:21;;;;;;;;;5.00;4.33;;;;;12.70;75.28;100945.91;5117612;27;45416;-68
2022/12/24 02:33:02;;;;;;;;;8.00;3.67;;;;;12.67;76.28;100961.69;5107818;27;45418;-65
2022/12/24 02:35:36;;;;;;;;;8.00;3.67;;;;;12.60;76.26;100949.44;5132783;27;46937;-66
2022/12/24 02:38:30;;;;;;;;;7.00;5.00;;;;;12.66;76.19;100951.16;5115429;27;45839;-67
2022/12/24 02:40:59;;;;;;;;;8.67;5.33;;;;;12.66;75.99;100933.63;5114545;27;45481;-66
2022/12/24 02:43:31;;;;;;;;;10.00;4.67;;;;;12.63;75.94;100932.78;5116961;27;45452;-67
2022/12/24 02:46:02;;;;;;;;;7.67;4.00;;;;;12.62;76.19;100921.38;5121240;27;45402;-66
2022/12/24 02:48:30;;;;;;;;;5.33;3.00;;;;;12.66;76.27;100932.78;5120816;27;45499;-67
2022/12/24 02:51:07;;;;;;;;;5.67;3.00;;;;;12.66;76.44;100928.38;5121207;27;45462;-68
2022/12/24 02:53:33;;;;;;;;;3.33;3.33;;;;;12.69;76.04;100943.25;5116787;27;45396;-67
2022/12/24 02:56:21;;;;;;;;;4.33;4.00;;;;;12.70;77.00;100955.53;5116025;27;46123;-66
2022/12/24 02:59:09;;;;;;;;;7.33;4.00;;;;;12.71;76.19;100952.03;5118377;27;45536;-67
2022/12/24 03:01:54;;;;;;;;;8.33;4.67;;;;;12.70;75.76;100940.63;5120509;27;45424;-67
2022/12/24 03:04:54;;;;;;;;;9.33;5.33;;;;;12.66;76.07;100938.88;5116785;27;45265;-67
2022/12/24 03:07:38;;;;;;;;;11.00;4.00;;;;;12.68;75.74;100931.00;5116082;27;45511;-67
2022/12/24 03:10:36;;;;;;;;;11.67;5.33;;;;;12.64;76.67;100939.78;5118812;27;45504;-68
2022/12/24 03:13:11;;;;;;;;;6.00;5.33;;;;;12.56;75.88;100924.03;5116382;27;45370;-67
2022/12/24 03:15:38;;;;;;;;;7.33;4.00;;;;;12.56;76.38;100933.69;5116814;27;45716;-67
2022/12/24 03:18:07;;;;;;;;;15.33;4.00;;;;;12.56;76.26;100934.56;5114076;27;46830;-68
2022/12/24 03:20:51;;;;;;;;;9.67;4.00;;;;;12.50;76.48;100921.41;5115857;27;45445;-66
2022/12/24 03:23:17;;;;;;;;;6.33;2.00;;;;;12.52;76.87;100924.91;5116551;27;45579;-68
2022/12/24 03:26:01;;;;;;;;;12.33;4.00;;;;;12.55;76.52;100924.91;5114954;27;45592;-67
2022/12/24 03:28:28;;;;;;;;;9.00;6.00;;;;;12.43;76.64;100910.09;5106087;27;45377;-67
2022/12/24 03:30:53;;;;;;;;;6.67;4.00;;;;;12.44;77.00;100909.19;5116113;27;45455;-67
2022/12/24 03:33:20;;;;;;;;;13.67;5.67;;;;;12.46;76.58;100917.94;5115193;27;45476;-69
2022/12/24 03:35:46;;;;;;;;;7.67;3.67;;;;;12.35;76.92;100898.72;5117380;27;45502;-69
2022/12/24 03:38:11;;;;;;;;;8.00;2.67;;;;;12.37;76.95;100898.72;5116176;27;45527;-69
2022/12/24 03:40:37;;;;;;;;;5.67;3.00;;;;;12.45;76.79;100918.81;5115656;27;45737;-68
2022/12/24 03:43:03;;;;;;;;;4.67;2.67;;;;;12.54;76.68;100920.53;5119533;27;45662;-68
2022/12/24 03:45:29;;;;;;;;;5.33;3.00;;;;;12.58;76.84;100935.44;5116417;27;45438;-68
2022/12/24 03:47:54;;;;;;;;;7.33;4.33;;;;;12.59;77.04;100934.53;5116729;27;46436;-66
2022/12/24 03:50:20;;;;;;;;;3.00;2.00;;;;;12.60;76.84;100938.94;5119921;27;45438;-69
2022/12/24 03:52:45;;;;;;;;;5.67;3.00;;;;;12.60;77.46;100935.41;5117990;27;45561;-66
2022/12/24 03:55:11;;;;;;;;;9.00;2.67;;;;;12.58;76.49;100937.19;5109821;27;45508;-67
2022/12/24 03:57:37;;;;;;;;;9.33;4.00;;;;;12.51;76.85;100928.44;5101908;27;46475;-69
2022/12/24 04:00:04;;;;;;;;;8.33;2.33;;;;;12.61;77.09;100937.16;5097008;27;45753;-69
2022/12/24 04:02:30;;;;;;;;;10.67;2.67;;;;;12.63;77.06;100948.56;5095298;27;45520;-71
2022/12/24 04:04:56;;;;;;;;;9.00;6.33;;;;;12.57;76.79;100945.94;5096738;27;45474;-69
2022/12/24 04:07:22;;;;;;;;;6.33;4.00;;;;;12.32;77.05;100917.09;5113500;27;46304;-68
2022/12/24 04:09:47;;;;;;;;;14.00;4.33;;;;;12.45;76.94;100949.47;5119534;27;45484;-67
2022/12/24 04:12:13;;;;;;;;;4.67;3.00;;;;;12.51;77.45;100952.09;5116183;27;45330;-68
2022/12/24 04:14:38;;;;;;;;;6.67;3.33;;;;;12.55;77.81;100960.81;5115127;27;45355;-66
2022/12/24 04:17:04;;;;;;;;;6.00;4.33;;;;;12.48;77.54;100958.22;5113815;27;47774;-69
2022/12/24 04:19:29;;;;;;;;;10.00;4.33;;;;;12.57;77.33;100967.81;5113561;27;45588;-67
2022/12/24 04:21:55;;;;;;;;;8.00;5.00;;;;;12.55;77.03;100972.19;5115632;27;45383;-68
2022/12/24 04:24:20;;;;;;;;;3.33;2.67;;;;;12.62;77.16;100970.44;5118077;27;45324;-69
2022/12/24 04:26:46;;;;;;;;;3.33;2.00;;;;;12.51;77.19;100954.72;5119660;27;45460;-67
2022/12/24 04:29:12;;;;;;;;;5.67;3.00;;;;;12.64;77.06;100979.19;5119536;27;46008;-70
2022/12/24 04:31:37;;;;;;;;;10.67;4.00;;;;;12.59;77.10;100963.44;5119408;27;45498;-70
2022/12/24 04:34:03;;;;;;;;;11.00;5.00;;;;;12.57;76.31;100977.47;5118507;27;45335;-70
2022/12/24 04:36:29;;;;;;;;;9.33;4.67;;;;;12.60;76.68;100975.72;5118973;27;45575;-70
2022/12/24 04:38:54;;;;;;;;;5.67;2.67;;;;;12.59;77.24;100986.22;5114608;27;45512;-70
2022/12/24 04:41:22;;;;;;;;;7.67;3.33;;;;;12.60;77.07;100990.59;5110527;27;45360;-68
2022/12/24 04:43:48;;;;;;;;;7.67;4.67;;;;;12.62;77.17;100980.94;5115775;27;45774;-69
2022/12/24 04:46:23;;;;;;;;;11.33;6.00;;;;;12.54;76.33;100980.09;5114477;27;45867;-69
2022/12/24 04:48:50;;;;;;;;;5.00;4.00;;;;;12.59;77.09;101001.97;5114606;27;45539;-70
2022/12/24 04:51:17;;;;;;;;;13.67;4.00;;;;;12.51;76.90;100987.13;5115048;27;45357;-68
2022/12/24 04:53:43;;;;;;;;;6.33;4.00;;;;;12.61;77.02;100995.84;5113973;27;45326;-67
2022/12/24 04:56:12;;;;;;;;;4.67;4.00;;;;;12.61;76.63;100994.97;5114544;27;45466;-65
2022/12/24 04:58:38;;;;;;;;;10.00;4.00;;;;;12.54;76.93;101007.25;5114945;27;45390;-67
2022/12/24 05:01:10;;;;;;;;;12.00;7.33;;;;;12.46;77.52;100996.75;5114055;27;45750;-66
2022/12/24 05:03:36;;;;;;;;;8.67;6.67;;;;;12.34;77.50;100988.91;5113120;27;45607;-67
2022/12/24 05:06:10;;;;;;;;;6.00;4.00;;;;;12.25;77.80;100989.78;5099858;27;46436;-67
2022/12/24 05:08:37;;;;;;;;;15.00;3.67;;;;;12.28;78.37;101005.53;5118316;27;45336;-67
2022/12/24 05:11:03;;;;;;;;;5.00;4.00;;;;;12.26;78.26;100996.75;5118501;27;45512;-68
2022/12/24 05:13:29;;;;;;;;;4.67;4.00;;;;;12.25;78.65;101009.91;5117422;27;46109;-67
2022/12/24 05:15:54;;;;;;;;;9.33;4.00;;;;;12.18;78.81;100988.03;5113616;27;45871;-67
2022/12/24 05:18:20;;;;;;;;;3.33;2.67;;;;;12.22;78.15;100984.53;5113185;27;45459;-67
2022/12/24 05:20:46;;;;;;;;;4.33;4.33;;;;;12.25;78.75;100994.16;5114069;27;45498;-67
2022/12/24 05:28:47;;;;;;;;;8.00;5.00;;;;;12.23;79.05;101001.16;5113250;27;45700;-67
2022/12/24 05:31:13;;;;;;;;;8.00;4.00;;;;;12.23;79.04;100995.91;5113238;27;45985;-67
2022/12/24 05:33:38;;;;;;;;;9.00;4.67;;;;;12.20;79.30;100980.16;5114036;27;45654;-67
2022/12/24 05:36:04;;;;;;;;;10.00;4.00;;;;;12.18;79.26;100982.78;5114151;27;45506;-67
2022/12/24 05:38:30;;;;;;;;;12.67;5.00;;;;;12.21;79.51;100989.78;5115593;27;45546;-66
2022/12/24 05:40:55;;;;;;;;;6.33;4.67;;;;;12.18;79.63;100974.03;5112965;27;45408;-69
2022/12/24 05:43:21;;;;;;;;;8.33;4.67;;;;;12.09;79.66;100960.00;5113443;27;45353;-68
2022/12/24 05:45:46;;;;;;;;;7.33;4.00;;;;;12.17;80.36;100977.50;5115737;27;46387;-67
2022/12/24 05:48:12;;;;;;;;;6.67;3.00;;;;;12.18;79.88;100977.53;5115945;27;46818;-67
2022/12/24 05:50:40;;;;;;;;;7.00;4.00;;;;;12.21;79.86;100981.91;5105364;27;45472;-67
2022/12/24 05:53:06;;;;;;;;;6.33;4.00;;;;;12.21;80.10;100977.50;5117102;27;45721;-66
2022/12/24 05:55:32;;;;;;;;;2.33;2.33;;;;;12.23;80.11;100974.91;5113406;27;45854;-68
2022/12/24 05:57:58;;;;;;;;;5.33;3.33;;;;;12.27;80.35;100969.66;5114334;27;45896;-67
2022/12/24 06:00:24;;;;;;;;;12.33;6.67;;;;;12.26;80.04;100957.38;5115197;27;45547;-67
2022/12/24 06:02:49;;;;;;;;;7.67;4.33;;;;;12.28;80.34;100963.50;5116832;27;45396;-67
2022/12/24 06:05:15;;;;;;;;;9.33;5.00;;;;;12.26;80.31;100969.63;5099757;27;46623;-69
2022/12/24 06:07:41;;;;;;;;;7.33;4.67;;;;;12.19;79.94;100957.38;5112388;27;45309;-69
2022/12/24 06:10:07;;;;;;;;;10.33;7.00;;;;;12.10;80.32;100950.38;5118044;27;45489;-68
2022/12/24 06:12:33;;;;;;;;;10.33;7.00;;;;;12.11;80.14;100936.41;5113723;27;45455;-71
2022/12/24 06:14:59;;;;;;;;;7.67;5.67;;;;;12.32;80.37;100963.50;5112037;27;46664;-67
2022/12/24 06:17:24;;;;;;;;;10.00;4.00;;;;;12.35;79.78;100971.38;5114742;27;45482;-66
2022/12/24 06:19:50;;;;;;;;;5.00;3.67;;;;;12.40;80.01;100974.88;5117980;27;45442;-69
2022/12/24 06:22:15;;;;;;;;;9.67;4.33;;;;;12.36;79.38;100986.25;5121972;27;45599;-70
2022/12/24 06:24:41;;;;;;;;;9.00;3.67;;;;;12.35;79.47;100979.25;5119562;27;45459;-69
2022/12/24 06:27:06;;;;;;;;;6.00;3.00;;;;;12.32;78.96;100960.88;5115856;27;45421;-71
2022/12/24 06:29:32;;;;;;;;;6.00;4.00;;;;;12.40;79.48;100985.38;5118767;27;45545;-67
2022/12/24 06:31:57;;;;;;;;;5.33;4.67;;;;;12.29;78.73;100959.13;5119661;27;45557;-67
2022/12/24 06:34:23;;;;;;;;;5.00;3.67;;;;;12.32;78.79;100972.25;5117147;27;46185;-66
2022/12/24 06:36:48;;;;;;;;;3.00;2.00;;;;;12.23;79.48;100969.66;5116916;27;45388;-68
2022/12/24 06:39:14;;;;;;;;;5.33;3.00;;;;;12.28;79.10;100967.88;5117149;27;45290;-66
2022/12/24 06:41:39;;;;;;;;;4.00;3.00;;;;;12.31;79.37;100967.88;5116667;27;45316;-68
2022/12/24 06:44:05;;;;;;;;;3.33;3.00;;;;;12.34;78.87;100972.25;5116872;27;45899;-69
2022/12/24 06:46:30;;;;;;;;;3.00;3.00;;;;;12.31;79.13;100965.25;5114996;27;45501;-67
2022/12/24 06:48:56;;;;;;;;;6.33;3.00;;;;;12.31;78.68;100967.88;5117427;27;45489;-67
2022/12/24 06:51:22;;;;;;;;;7.67;4.00;;;;;12.33;78.31;100965.25;5119620;27;45527;-67
2022/12/24 06:53:49;;;;;;;;;3.67;1.67;;;;;12.35;78.12;100969.63;5118688;27;45379;-66
2022/12/24 06:56:15;;;;;;;;;7.33;2.67;;;;;12.35;78.02;100961.75;5116050;27;45411;-67
2022/12/24 06:58:41;;;;;;;;;6.67;1.67;;;;;12.37;77.73;100969.63;5115657;27;45466;-67
2022/12/24 07:01:10;;;;;;;;;6.67;4.00;;;;;12.33;77.91;100976.63;5116429;27;45414;-67
2022/12/24 07:03:36;;;;;;;;;6.67;3.00;;;;;12.40;77.52;100973.13;5119303;27;46664;-69
2022/12/24 07:06:02;;;;;;;;;4.00;2.50;;;;;12.37;77.81;100973.13;5114696;27;45440;-66
2022/12/24 07:08:28;;;;;;;;;6.00;3.00;;;;;12.40;77.11;100983.63;5116272;27;45749;-67
2022/12/24 07:10:53;;;;;;;;;4.00;2.33;;;;;12.34;76.73;100961.72;5116425;27;45379;-67
2022/12/24 07:13:19;;;;;;;;;4.67;2.00;;;;;12.35;76.75;100984.50;5119216;27;45427;-69
2022/12/24 07:15:45;;;;;;;;;2.00;1.00;;;;;12.25;77.10;100974.03;5120186;27;45483;-67
2022/12/24 07:18:11;;;;;;;;;2.00;2.00;;;;;12.21;76.73;100974.03;5119572;27;45487;-66
2022/12/24 07:20:38;;;;;;;;;5.33;2.33;;;;;12.27;76.81;100997.66;5116189;27;45464;-67
2022/12/24 07:23:03;;;;;;;;;4.33;1.33;;;;;12.27;76.79;101001.16;5116249;27;46741;-67
2022/12/24 07:25:29;;;;;;;;;2.33;1.00;;;;;12.27;76.83;101000.28;5120300;27;45627;-67
2022/12/24 07:27:55;;;;;;;;;5.00;1.33;;;;;12.29;77.13;101004.66;5116922;27;45415;-67
2022/12/24 07:30:21;;;;;;;;;4.67;2.33;;;;;12.24;76.72;100981.88;5132027;27;45666;-68
2022/12/24 07:32:46;;;;;;;;;2.33;0.33;;;;;12.15;76.08;100974.00;5114358;27;46760;-66
2022/12/24 07:35:12;;;;;;;;;6.00;2.00;;;;;12.03;75.99;100969.63;5120480;27;45308;-66
2022/12/24 07:37:37;;;;;;;;;4.00;1.33;;;;;12.07;76.94;100995.03;5120396;27;45602;-68
2022/12/24 07:40:06;;;;;;;;;3.00;1.33;;;;;12.10;76.42;100997.66;5120581;27;45498;-72
2022/12/24 07:42:32;;;;;;;;;1.67;1.33;;;;;12.18;76.62;101011.66;5116702;27;45498;-67
2022/12/24 07:44:58;;;;;;;;;1.67;1.00;;;;;12.22;76.47;101010.78;5115178;27;45344;-70
2022/12/24 07:47:23;;;;;;;;;1.67;1.00;;;;;12.13;76.58;100995.03;5119622;27;45459;-66
2022/12/24 07:49:49;;;;;;;;;4.00;2.00;;;;;12.25;76.46;101010.78;5118562;27;45676;-70
2022/12/24 07:52:15;;;;;;;;;1.67;0.67;;;;;12.27;75.88;101014.28;5115412;27;46930;-68
2022/12/24 07:54:40;;;;;;;;;1.00;1.00;;;;;12.21;76.09;100997.66;5114789;27;45392;-67
2022/12/24 07:57:06;;;;;;;;;4.00;2.00;;;;;12.40;76.53;101009.88;5116122;27;45325;-69
2022/12/24 07:59:31;;;;;;;;;2.33;1.00;;;;;12.40;75.92;101007.25;5119631;27;45616;-72
2022/12/24 08:01:57;;;;;;;;;3.00;1.00;;;;;12.43;75.63;101002.03;5131298;27;47928;-69
2022/12/24 08:04:22;;;;;;;;;5.00;2.00;;;;;12.51;75.33;101016.00;5111289;27;45881;-68
2022/12/24 08:06:48;;;;;;;;;3.67;1.67;;;;;12.53;75.52;101021.28;5106086;27;45464;-70
2022/12/24 08:09:14;;;;;;;;;2.00;2.00;;;;;12.35;75.17;100985.38;5115588;27;45777;-67
2022/12/24 08:11:39;;;;;;;;;4.00;1.67;;;;;12.56;75.22;101021.25;5115080;27;46936;-67
2022/12/24 08:14:05;;;;;;;;;1.33;1.00;;;;;12.48;75.07;101005.50;5118686;27;45394;-66
2022/12/24 08:16:30;;;;;;;;;4.00;3.00;;;;;12.52;74.76;101012.50;5113746;27;45551;-66
2022/12/24 08:18:56;;;;;;;;;4.00;3.67;;;;;12.45;74.85;101005.50;5115590;27;45771;-67
2022/12/24 08:21:22;;;;;;;;;1.00;1.00;;;;;12.44;74.27;101011.66;5131031;27;46888;-69
2022/12/24 08:23:47;;;;;;;;;3.67;1.00;;;;;12.52;75.10;101046.66;5096835;27;45343;-68
2022/12/24 08:26:13;;;;;;;;;3.33;1.67;;;;;12.46;74.59;101022.16;5113911;27;45675;-71
2022/12/24 08:28:38;;;;;;;;;2.67;1.67;;;;;12.43;75.03;101036.19;5115414;27;45480;-70
2022/12/24 08:31:04;;;;;;;;;1.67;1.00;;;;;12.38;74.83;101032.66;5119196;27;45958;-73
2022/12/24 08:33:31;;;;;;;;;3.00;1.33;;;;;12.41;75.04;101031.78;5118257;27;45507;-72
2022/12/24 08:35:57;;;;;;;;;3.00;1.00;;;;;12.54;74.72;101064.19;5117351;27;45335;-67
2022/12/24 08:38:23;;;;;;;;;2.00;2.00;;;;;12.37;75.04;101043.19;5114021;27;45670;-67
2022/12/24 08:40:49;;;;;;;;;2.67;2.00;;;;;12.49;74.45;101069.44;5114550;27;45423;-68
2022/12/24 08:43:15;;;;;;;;;2.33;1.67;;;;;12.41;74.76;101043.19;5113093;27;45463;-67
2022/12/24 08:45:41;;;;;;;;;5.33;2.00;;;;;12.47;74.76;101058.06;5114885;27;45785;-66
2022/12/24 08:48:35;;;;;;;;;5.33;1.67;;;;;12.45;74.47;101062.44;5114432;27;45427;-66
2022/12/24 08:51:08;;;;;;;;;5.67;1.33;;;;;12.46;74.63;101058.94;5114265;27;45449;-68
2022/12/24 08:53:34;;;;;;;;;1.67;1.67;;;;;12.45;74.85;101067.69;5112426;27;45417;-67
2022/12/24 08:56:05;;;;;;;;;6.00;2.33;;;;;12.53;74.36;101086.97;5115725;27;45481;-66
2022/12/24 08:58:31;;;;;;;;;1.33;1.00;;;;;12.44;74.09;101068.56;5117788;27;45479;-69
2022/12/24 09:00:57;;;;;;;;;1.67;1.00;;;;;12.51;74.70;101088.72;5114801;27;46020;-68
2022/12/24 09:03:23;;;;;;;;;3.33;1.33;;;;;12.56;74.65;101096.59;5114475;27;45412;-66
2022/12/24 09:05:48;;;;;;;;;2.00;1.00;;;;;12.50;74.15;101100.97;5102169;27;45555;-66
2022/12/24 09:08:14;;;;;;;;;3.00;1.00;;;;;12.52;75.15;101114.09;5115533;27;45745;-67
2022/12/24 09:10:39;;;;;;;;;1.67;1.00;;;;;12.42;75.06;101092.19;5103873;27;47626;-66
2022/12/24 09:13:05;;;;;;;;;3.00;1.00;;;;;12.39;74.78;101107.97;5103230;27;45395;-67
2022/12/24 09:15:31;;;;;;;;;3.00;3.00;;;;;12.30;74.77;101105.34;5106092;27;45752;-66
2022/12/24 09:17:57;;;;;;;;;4.00;2.00;;;;;12.32;74.49;101118.47;5107427;27;45434;-66
2022/12/24 09:20:22;;;;;;;;;6.33;1.00;;;;;12.38;74.38;101121.97;5101344;27;45418;-67
2022/12/24 09:22:48;;;;;;;;;2.00;1.00;;;;;12.35;74.76;101115.84;5111888;27;45488;-65
2022/12/24 09:25:14;;;;;;;;;2.00;2.00;;;;;12.38;74.68;101123.72;5119549;27;45316;-68
2022/12/24 09:27:39;;;;;;;;;3.67;2.00;;;;;12.35;75.20;101123.72;5111973;27;45417;-67
2022/12/24 09:30:06;;;;;;;;;4.00;1.00;;;;;12.38;74.76;101134.22;5109187;27;47766;-67
2022/12/24 09:32:33;;;;;;;;;1.33;1.00;;;;;12.39;74.32;101131.63;5110032;27;45958;-65
2022/12/24 09:34:58;;;;;;;;;5.33;1.00;;;;;12.39;74.73;101143.88;5109047;27;45401;-66
2022/12/24 09:37:24;;;;;;;;;4.33;1.33;;;;;12.39;74.81;101151.75;5110781;27;45596;-67
2022/12/24 09:39:51;;;;;;;;;3.67;1.00;;;;;12.34;74.71;101156.09;5103933;27;45803;-66
2022/12/24 09:43:04;;;;;;;;;2.33;2.00;;;;;12.20;75.04;101129.84;5100981;27;45490;-67
2022/12/24 09:45:44;;;;;;;;;2.33;1.00;;;;;12.13;75.01;101112.31;5031418;28;45719;-67
2022/12/24 09:48:17;;;;;;;;;1.67;1.00;;;;;12.30;75.22;101140.34;5099326;27;45725;-67
2022/12/24 09:50:55;;;;;;;;;1.00;1.00;;;;;12.39;75.08;101142.13;5103596;27;46983;-65
2022/12/24 09:53:34;;;;;;;;;3.00;1.67;;;;;12.43;75.02;101130.75;5110205;27;45599;-67
2022/12/24 09:56:03;;;;;;;;;6.33;1.00;;;;;12.54;75.05;101135.13;5103864;27;45491;-66
2022/12/24 09:58:36;;;;;;;;;3.33;1.67;;;;;12.60;74.85;101132.47;5106237;27;45810;-66
2022/12/24 10:01:02;;;;;;;;;0.33;0.33;;;;;12.56;74.05;101118.47;5110571;27;45532;-66
2022/12/24 10:03:27;;;;;;;;;2.67;2.00;;;;;12.55;74.32;101121.09;5104623;27;45623;-67
2022/12/24 10:06:09;;;;;;;;;0.67;0.67;;;;;12.61;74.68;101121.97;5109805;27;45478;-69
2022/12/24 10:08:53;;;;;;;;;0.00;0.00;;;;;12.71;74.36;101136.84;5116786;27;45386;-68
2022/12/24 10:11:27;;;;;;;;;3.67;1.00;;;;;12.77;74.13;101135.13;5110707;27;46308;-67
2022/12/24 10:14:16;;;;;;;;;3.00;1.00;;;;;12.76;73.54;101138.63;5108519;27;45491;-67
2022/12/24 10:16:55;;;;;;;;;2.67;2.33;;;;;12.63;74.44;101138.63;5103555;27;45886;-66
2022/12/24 10:19:58;;;;;;;;;4.00;1.00;;;;;12.64;74.86;101147.38;5096538;27;45289;-67
2022/12/24 10:22:40;;;;;;;;;0.67;0.00;;;;;12.66;75.16;101140.38;5096710;27;46857;-68
2022/12/24 10:25:23;;;;;;;;;2.00;2.00;;;;;12.75;74.35;101136.88;5095502;27;45511;-67
2022/12/24 10:27:52;;;;;;;;;3.33;2.00;;;;;12.63;74.61;101127.25;5096320;27;45861;-74
2022/12/24 10:30:20;;;;;;;;;1.00;1.00;;;;;12.68;74.73;101138.63;5101338;27;45460;-69
2022/12/24 10:32:48;;;;;;;;;2.67;1.00;;;;;12.75;75.14;101144.75;5098270;27;45474;-66
2022/12/24 10:35:13;;;;;;;;;2.67;1.33;;;;;12.83;74.62;101150.88;5097606;27;45812;-65
2022/12/24 10:37:41;;;;;;;;;2.00;2.00;;;;;12.82;74.79;101147.38;5096409;27;45479;-67
2022/12/24 10:40:17;;;;;;;;;2.00;2.00;;;;;12.81;73.94;101142.13;5096122;27;45673;-66
2022/12/24 10:42:43;;;;;;;;;3.33;2.33;;;;;12.67;74.16;101129.88;5098912;27;45717;-68
2022/12/24 10:45:14;;;;;;;;;1.67;1.00;;;;;12.70;74.69;101118.47;5094185;27;45541;-65
2022/12/24 10:47:42;;;;;;;;;1.00;1.00;;;;;12.82;74.41;101126.34;5094363;27;45425;-66
2022/12/24 10:50:29;;;;;;;;;2.33;2.33;;;;;12.83;74.71;101120.19;5096192;27;45526;-68
2022/12/24 10:53:05;;;;;;;;;2.00;1.33;;;;;12.94;74.48;101131.59;5100246;27;45418;-64
2022/12/24 10:55:31;;;;;;;;;7.33;2.00;;;;;12.93;73.87;101121.97;5100241;27;45692;-65
2022/12/24 10:58:14;;;;;;;;;2.00;1.00;;;;;13.06;74.16;101135.94;5099040;27;45327;-64
2022/12/24 11:00:40;;;;;;;;;0.67;0.00;;;;;13.04;73.90;101121.94;5095581;27;45579;-65
2022/12/24 11:03:06;;;;;;;;;2.00;0.00;;;;;13.16;73.60;101131.53;5095052;27;45333;-66
2022/12/24 11:05:36;;;;;;;;;0.67;0.67;;;;;13.18;73.89;101127.16;5093892;27;45449;-64
2022/12/24 11:08:11;;;;;;;;;2.33;1.00;;;;;13.24;73.64;101127.16;5103010;27;45551;-64
2022/12/24 11:10:41;;;;;;;;;2.00;2.00;;;;;13.27;73.14;101121.91;5116765;27;45589;-65
2022/12/24 11:13:24;;;;;;;;;2.67;0.33;;;;;13.23;73.38;101103.47;5116320;27;45328;-67
2022/12/24 11:16:00;;;;;;;;;5.00;1.33;;;;;13.15;72.67;101100.88;5116210;27;45838;-67
2022/12/24 11:18:26;;;;;;;;;2.67;1.00;;;;;13.32;73.47;101106.13;5117584;27;45588;-68
2022/12/24 11:20:52;;;;;;;;;3.00;2.00;;;;;13.39;73.17;101117.50;5120448;27;45453;-67
2022/12/24 11:23:19;;;;;;;;;3.00;1.67;;;;;13.43;72.86;101117.47;5120478;27;45716;-66
2022/12/24 11:25:50;;;;;;;;;2.33;2.00;;;;;13.48;72.90;101126.22;5120215;27;45510;-65
2022/12/24 11:28:28;;;;;;;;;4.33;2.00;;;;;13.45;72.27;101114.81;5119401;27;45426;-66
2022/12/24 11:31:18;;;;;;;;;3.00;2.67;;;;;13.48;72.19;101114.84;5114541;27;45557;-67
2022/12/24 11:33:52;;;;;;;;;3.00;2.00;;;;;13.39;72.58;101114.88;5110980;27;45812;-66
2022/12/24 11:36:22;;;;;;;;;3.00;2.00;;;;;13.29;72.79;101101.75;5131538;27;45837;-64
2022/12/24 11:38:54;;;;;;;;;3.33;2.00;;;;;13.44;72.42;101111.31;5114785;27;45887;-64
2022/12/24 11:41:19;;;;;;;;;2.00;0.67;;;;;13.44;72.63;101111.31;5116277;27;45422;-67